sensor_id;sensor_type;location;lat;lon;timestamp;pressure;altitude;pressure_sealevel;temperature;humidity
31501;BME280;31032;49.512;10.892;2022-08-25T00:01:16;98090.47;;;19.36;100.00
31501;BME280;31032;49.512;10.892;2022-08-25T00:03:42;98087.19;;;19.34;99.92
31501;BME280;31032;49.512;10.892;2022-08-25T00:06:08;98094.00;;;19.20;100.00
31501;BME280;31032;49.512;10.892;2022-08-25T00:08:35;98084.03;;;19.30;100.00
31501;BME280;31032;49.512;10.892;2022-08-25T00:11:07;98084.03;;;19.30;100.00
31501;BME280;31032;49.512;10.892;2022-08-25T00:13:33;98088.91;;;19.19;100.00
31501;BME280;31032;49.512;10.892;2022-08-25T00:15:58;98081.56;;;19.14;100.00
31501;BME280;31032;49.512;10.892;2022-08-25T00:18:24;98083.13;;;19.23;100.00
31501;BME280;31032;49.512;10.892;2022-08-25T00:20:50;98081.88;;;19.11;100.00
31501;BME280;31032;49.512;10.892;2022-08-25T00:23:15;98079.25;;;19.11;100.00
31501;BME280;31032;49.512;10.892;2022-08-25T00:25:41;98080.53;;;19.15;100.00
31501;BME280;31032;49.512;10.892;2022-08-25T00:28:06;98085.44;;;19.18;100.00
31501;BME280;31032;49.512;10.892;2022-08-25T00:30:32;98083.47;;;19.20;100.00
31501;BME280;31032;49.512;10.892;2022-08-25T00:32:58;98080.81;;;19.20;100.00
31501;BME280;31032;49.512;10.892;2022-08-25T00:35:24;98082.66;;;19.20;100.00
31501;BME280;31032;49.512;10.892;2022-08-25T00:37:50;98082.28;;;19.45;99.00
31501;BME280;31032;49.512;10.892;2022-08-25T00:40:15;98078.47;;;19.33;99.17
31501;BME280;31032;49.512;10.892;2022-08-25T00:42:40;98083.81;;;19.17;100.00
31501;BME280;31032;49.512;10.892;2022-08-25T00:45:08;98082.41;;;19.29;99.06
31501;BME280;31032;49.512;10.892;2022-08-25T00:47:34;98081.84;;;19.19;99.93
31501;BME280;31032;49.512;10.892;2022-08-25T00:50:02;98081.59;;;19.06;100.00
31501;BME280;31032;49.512;10.892;2022-08-25T00:52:40;98087.88;;;19.05;100.00
31501;BME280;31032;49.512;10.892;2022-08-25T00:55:18;98083.59;;;19.04;100.00
31501;BME280;31032;49.512;10.892;2022-08-25T00:57:48;98080.97;;;19.04;100.00
31501;BME280;31032;49.512;10.892;2022-08-25T01:00:22;98088.75;;;19.20;100.00
31501;BME280;31032;49.512;10.892;2022-08-25T01:02:47;98078.56;;;19.17;100.00
31501;BME280;31032;49.512;10.892;2022-08-25T01:05:13;98078.56;;;18.95;100.00
31501;BME280;31032;49.512;10.892;2022-08-25T01:07:40;98075.97;;;18.86;100.00
31501;BME280;31032;49.512;10.892;2022-08-25T01:10:08;98075.69;;;19.04;100.00
31501;BME280;31032;49.512;10.892;2022-08-25T01:12:34;98059.19;;;18.79;100.00
31501;BME280;31032;49.512;10.892;2022-08-25T01:15:03;98063.47;;;18.80;100.00
31501;BME280;31032;49.512;10.892;2022-08-25T01:17:53;98068.84;;;18.64;100.00
31501;BME280;31032;49.512;10.892;2022-08-25T01:20:23;98063.88;;;18.69;100.00
31501;BME280;31032;49.512;10.892;2022-08-25T01:22:50;98058.59;;;18.69;100.00
31501;BME280;31032;49.512;10.892;2022-08-25T01:28:19;98064.44;;;18.57;100.00
31501;BME280;31032;49.512;10.892;2022-08-25T01:30:45;98063.06;;;18.69;100.00
31501;BME280;31032;49.512;10.892;2022-08-25T01:33:11;98064.00;;;18.76;100.00
31501;BME280;31032;49.512;10.892;2022-08-25T01:35:37;98065.50;;;18.70;100.00
31501;BME280;31032;49.512;10.892;2022-08-25T01:38:05;98059.53;;;18.54;100.00
31501;BME280;31032;49.512;10.892;2022-08-25T01:40:32;98059.16;;;18.57;100.00
31501;BME280;31032;49.512;10.892;2022-08-25T01:45:24;98054.13;;;18.39;100.00
31501;BME280;31032;49.512;10.892;2022-08-25T01:47:49;98054.84;;;18.25;100.00
31501;BME280;31032;49.512;10.892;2022-08-25T01:50:15;98050.41;;;18.18;100.00
31501;BME280;31032;49.512;10.892;2022-08-25T01:52:58;98061.97;;;18.17;100.00
31501;BME280;31032;49.512;10.892;2022-08-25T01:55:24;98053.38;;;18.23;100.00
31501;BME280;31032;49.512;10.892;2022-08-25T01:57:50;98057.78;;;18.30;100.00
31501;BME280;31032;49.512;10.892;2022-08-25T02:00:18;98059.31;;;18.25;100.00
31501;BME280;31032;49.512;10.892;2022-08-25T02:02:43;98066.88;;;18.20;100.00
31501;BME280;31032;49.512;10.892;2022-08-25T02:05:11;98061.81;;;18.10;100.00
31501;BME280;31032;49.512;10.892;2022-08-25T02:07:38;98060.19;;;18.09;100.00
31501;BME280;31032;49.512;10.892;2022-08-25T02:10:05;98063.28;;;18.13;100.00
31501;BME280;31032;49.512;10.892;2022-08-25T02:12:32;98071.16;;;18.21;100.00
31501;BME280;31032;49.512;10.892;2022-08-25T02:14:58;98066.16;;;18.34;100.00
31501;BME280;31032;49.512;10.892;2022-08-25T02:17:26;98059.38;;;18.39;100.00
31501;BME280;31032;49.512;10.892;2022-08-25T02:19:51;98054.78;;;17.94;100.00
31501;BME280;31032;49.512;10.892;2022-08-25T02:22:17;98051.59;;;17.52;100.00
31501;BME280;31032;49.512;10.892;2022-08-25T02:24:42;98051.78;;;17.59;100.00
31501;BME280;31032;49.512;10.892;2022-08-25T02:27:08;98051.09;;;17.65;100.00
31501;BME280;31032;49.512;10.892;2022-08-25T02:29:34;98045.94;;;17.87;100.00
31501;BME280;31032;49.512;10.892;2022-08-25T02:31:59;98044.63;;;17.75;100.00
31501;BME280;31032;49.512;10.892;2022-08-25T02:34:25;98037.09;;;17.72;100.00
31501;BME280;31032;49.512;10.892;2022-08-25T02:36:51;98036.44;;;17.62;100.00
31501;BME280;31032;49.512;10.892;2022-08-25T02:39:17;98036.44;;;17.62;100.00
31501;BME280;31032;49.512;10.892;2022-08-25T02:41:42;98030.84;;;17.65;100.00
31501;BME280;31032;49.512;10.892;2022-08-25T02:44:08;98034.47;;;17.64;100.00
31501;BME280;31032;49.512;10.892;2022-08-25T02:46:34;98036.06;;;17.89;100.00
31501;BME280;31032;49.512;10.892;2022-08-25T02:49:00;98030.16;;;17.71;100.00
31501;BME280;31032;49.512;10.892;2022-08-25T02:51:26;98023.25;;;17.78;100.00
31501;BME280;31032;49.512;10.892;2022-08-25T02:53:57;98035.16;;;17.50;100.00
31501;BME280;31032;49.512;10.892;2022-08-25T02:56:22;98029.56;;;17.61;100.00
31501;BME280;31032;49.512;10.892;2022-08-25T02:58:49;98029.38;;;17.71;100.00
31501;BME280;31032;49.512;10.892;2022-08-25T03:01:15;98036.09;;;17.65;100.00
31501;BME280;31032;49.512;10.892;2022-08-25T03:03:43;98044.66;;;17.67;100.00
31501;BME280;31032;49.512;10.892;2022-08-25T03:06:10;98036.13;;;17.41;100.00
31501;BME280;31032;49.512;10.892;2022-08-25T03:08:37;98037.63;;;17.20;100.00
31501;BME280;31032;49.512;10.892;2022-08-25T03:11:03;98030.09;;;17.17;100.00
31501;BME280;31032;49.512;10.892;2022-08-25T03:13:29;98032.53;;;17.18;100.00
31501;BME280;31032;49.512;10.892;2022-08-25T03:15:57;98031.22;;;17.14;100.00
31501;BME280;31032;49.512;10.892;2022-08-25T03:18:23;98026.78;;;17.23;100.00
31501;BME280;31032;49.512;10.892;2022-08-25T03:20:48;98030.56;;;17.20;100.00
31501;BME280;31032;49.512;10.892;2022-08-25T03:23:13;98030.88;;;17.33;100.00
31501;BME280;31032;49.512;10.892;2022-08-25T03:25:39;98027.28;;;17.34;100.00
31501;BME280;31032;49.512;10.892;2022-08-25T03:28:24;98022.31;;;17.31;100.00
31501;BME280;31032;49.512;10.892;2022-08-25T03:30:50;98028.91;;;17.19;100.00
31501;BME280;31032;49.512;10.892;2022-08-25T03:33:15;98029.22;;;17.40;100.00
31501;BME280;31032;49.512;10.892;2022-08-25T03:35:41;98033.50;;;17.25;100.00
31501;BME280;31032;49.512;10.892;2022-08-25T03:38:06;98031.88;;;17.16;100.00
31501;BME280;31032;49.512;10.892;2022-08-25T03:40:31;98035.66;;;17.13;100.00
31501;BME280;31032;49.512;10.892;2022-08-25T03:42:57;98037.78;;;17.10;100.00
31501;BME280;31032;49.512;10.892;2022-08-25T03:45:23;98035.34;;;17.17;100.00
31501;BME280;31032;49.512;10.892;2022-08-25T03:47:49;98036.16;;;17.09;100.00
31501;BME280;31032;49.512;10.892;2022-08-25T03:50:17;98035.00;;;17.03;100.00
31501;BME280;31032;49.512;10.892;2022-08-25T03:52:43;98033.53;;;17.01;100.00
31501;BME280;31032;49.512;10.892;2022-08-25T03:55:10;98028.59;;;17.06;100.00
31501;BME280;31032;49.512;10.892;2022-08-25T03:57:35;98025.78;;;17.07;100.00
31501;BME280;31032;49.512;10.892;2022-08-25T04:00:02;98024.16;;;17.06;100.00
31501;BME280;31032;49.512;10.892;2022-08-25T04:02:27;98020.38;;;17.01;100.00
31501;BME280;31032;49.512;10.892;2022-08-25T04:04:54;98022.84;;;17.02;100.00
31501;BME280;31032;49.512;10.892;2022-08-25T04:07:19;98027.09;;;17.11;100.00
31501;BME280;31032;49.512;10.892;2022-08-25T04:09:44;98016.91;;;17.00;100.00
31501;BME280;31032;49.512;10.892;2022-08-25T04:12:10;98016.28;;;17.14;100.00
31501;BME280;31032;49.512;10.892;2022-08-25T04:14:35;98017.72;;;17.17;100.00
31501;BME280;31032;49.512;10.892;2022-08-25T04:17:01;98013.16;;;17.03;100.00
31501;BME280;31032;49.512;10.892;2022-08-25T04:19:26;98010.84;;;16.92;100.00
31501;BME280;31032;49.512;10.892;2022-08-25T04:21:51;98011.16;;;16.81;100.00
31501;BME280;31032;49.512;10.892;2022-08-25T04:24:18;98010.19;;;16.82;100.00
31501;BME280;31032;49.512;10.892;2022-08-25T04:26:46;98013.97;;;16.87;100.00
31501;BME280;31032;49.512;10.892;2022-08-25T04:29:14;98023.00;;;16.93;100.00
31501;BME280;31032;49.512;10.892;2022-08-25T04:31:41;98019.38;;;16.78;100.00
31501;BME280;31032;49.512;10.892;2022-08-25T04:34:07;98013.31;;;16.85;100.00
31501;BME280;31032;49.512;10.892;2022-08-25T04:36:33;98017.75;;;16.85;100.00
31501;BME280;31032;49.512;10.892;2022-08-25T04:38:58;98019.25;;;16.95;100.00
31501;BME280;31032;49.512;10.892;2022-08-25T04:41:25;98018.72;;;17.00;100.00
31501;BME280;31032;49.512;10.892;2022-08-25T04:43:51;98033.19;;;16.96;100.00
31501;BME280;31032;49.512;10.892;2022-08-25T04:46:19;98027.94;;;16.96;100.00
31501;BME280;31032;49.512;10.892;2022-08-25T04:48:45;98036.31;;;16.91;100.00
31501;BME280;31032;49.512;10.892;2022-08-25T04:51:13;98038.44;;;16.96;100.00
31501;BME280;31032;49.512;10.892;2022-08-25T04:53:39;98036.31;;;16.91;100.00
31501;BME280;31032;49.512;10.892;2022-08-25T04:56:07;98033.50;;;16.85;100.00
31501;BME280;31032;49.512;10.892;2022-08-25T04:58:33;98036.63;;;16.88;100.00
31501;BME280;31032;49.512;10.892;2022-08-25T05:01:07;98037.81;;;16.86;100.00
31501;BME280;31032;49.512;10.892;2022-08-25T05:03:33;98036.31;;;16.83;100.00
31501;BME280;31032;49.512;10.892;2022-08-25T05:05:59;98038.78;;;16.85;100.00
31501;BME280;31032;49.512;10.892;2022-08-25T05:08:25;98029.91;;;16.78;100.00
31501;BME280;31032;49.512;10.892;2022-08-25T05:10:50;98034.34;;;16.77;100.00
31501;BME280;31032;49.512;10.892;2022-08-25T05:13:25;98027.25;;;16.70;100.00
31501;BME280;31032;49.512;10.892;2022-08-25T05:15:52;98024.28;;;16.73;100.00
31501;BME280;31032;49.512;10.892;2022-08-25T05:18:19;98021.00;;;16.71;100.00
31501;BME280;31032;49.512;10.892;2022-08-25T05:20:45;98024.31;;;16.81;100.00
31501;BME280;31032;49.512;10.892;2022-08-25T05:23:11;98021.84;;;16.87;100.00
31501;BME280;31032;49.512;10.892;2022-08-25T05:25:36;98029.59;;;16.97;100.00
31501;BME280;31032;49.512;10.892;2022-08-25T05:28:02;98019.56;;;17.00;100.00
31501;BME280;31032;49.512;10.892;2022-08-25T05:30:27;98022.34;;;17.07;100.00
31501;BME280;31032;49.512;10.892;2022-08-25T05:32:53;98023.66;;;17.03;100.00
31501;BME280;31032;49.512;10.892;2022-08-25T05:35:18;98021.53;;;17.14;100.00
31501;BME280;31032;49.512;10.892;2022-08-25T05:37:45;98018.41;;;17.03;100.00
31501;BME280;31032;49.512;10.892;2022-08-25T05:40:11;98017.75;;;17.01;100.00
31501;BME280;31032;49.512;10.892;2022-08-25T05:42:36;98022.34;;;17.07;100.00
31501;BME280;31032;49.512;10.892;2022-08-25T05:45:02;98015.78;;;17.11;100.00
31501;BME280;31032;49.512;10.892;2022-08-25T05:47:28;98018.72;;;17.32;100.00
31501;BME280;31032;49.512;10.892;2022-08-25T05:49:53;98018.06;;;17.30;100.00
31501;BME280;31032;49.512;10.892;2022-08-25T05:52:19;98017.72;;;17.41;100.00
31501;BME280;31032;49.512;10.892;2022-08-25T05:54:44;98017.03;;;17.47;100.00
31501;BME280;31032;49.512;10.892;2022-08-25T05:57:09;98015.75;;;17.43;100.00
31501;BME280;31032;49.512;10.892;2022-08-25T05:59:35;98013.28;;;17.42;100.00
31501;BME280;31032;49.512;10.892;2022-08-25T06:02:00;98014.44;;;17.55;100.00
31501;BME280;31032;49.512;10.892;2022-08-25T06:04:44;98018.53;;;17.58;100.00
31501;BME280;31032;49.512;10.892;2022-08-25T06:07:10;98018.84;;;17.71;100.00
31501;BME280;31032;49.512;10.892;2022-08-25T06:09:40;98012.56;;;17.80;100.00
31501;BME280;31032;49.512;10.892;2022-08-25T06:12:06;98012.34;;;17.89;100.00
31501;BME280;31032;49.512;10.892;2022-08-25T06:14:32;98007.56;;;17.93;100.00
31501;BME280;31032;49.512;10.892;2022-08-25T06:16:58;98011.69;;;17.95;100.00
31501;BME280;31032;49.512;10.892;2022-08-25T06:19:24;98019.47;;;18.20;100.00
31501;BME280;31032;49.512;10.892;2022-08-25T06:21:55;98016.16;;;18.18;100.00
31501;BME280;31032;49.512;10.892;2022-08-25T06:24:23;98013.72;;;18.16;100.00
31501;BME280;31032;49.512;10.892;2022-08-25T06:26:48;98021.78;;;18.15;100.00
31501;BME280;31032;49.512;10.892;2022-08-25T06:29:14;98024.44;;;18.15;100.00
31501;BME280;31032;49.512;10.892;2022-08-25T06:31:39;98007.00;;;18.14;100.00
31501;BME280;31032;49.512;10.892;2022-08-25T06:34:06;98015.66;;;18.22;100.00
31501;BME280;31032;49.512;10.892;2022-08-25T06:36:32;98007.91;;;18.29;100.00
31501;BME280;31032;49.512;10.892;2022-08-25T06:38:57;98022.00;;;18.44;100.00
31501;BME280;31032;49.512;10.892;2022-08-25T06:41:22;98014.72;;;18.54;100.00
31501;BME280;31032;49.512;10.892;2022-08-25T06:43:49;98013.38;;;18.58;100.00
31501;BME280;31032;49.512;10.892;2022-08-25T06:46:17;98012.97;;;18.69;100.00
31501;BME280;31032;49.512;10.892;2022-08-25T06:48:44;98006.56;;;18.86;100.00
31501;BME280;31032;49.512;10.892;2022-08-25T06:51:11;98003.28;;;18.84;100.00
31501;BME280;31032;49.512;10.892;2022-08-25T06:53:37;98002.16;;;19.01;100.00
31501;BME280;31032;49.512;10.892;2022-08-25T06:56:03;97997.38;;;19.19;100.00
31501;BME280;31032;49.512;10.892;2022-08-25T06:58:29;97994.00;;;19.33;100.00
31501;BME280;31032;49.512;10.892;2022-08-25T07:00:55;97989.53;;;19.48;100.00
31501;BME280;31032;49.512;10.892;2022-08-25T07:03:21;97988.38;;;19.65;100.00
31501;BME280;31032;49.512;10.892;2022-08-25T07:05:53;97989.97;;;19.96;100.00
31501;BME280;31032;49.512;10.892;2022-08-25T07:08:19;97984.88;;;20.09;100.00
31501;BME280;31032;49.512;10.892;2022-08-25T07:10:45;97994.34;;;20.18;100.00
31501;BME280;31032;49.512;10.892;2022-08-25T07:13:10;97993.72;;;20.30;100.00
31501;BME280;31032;49.512;10.892;2022-08-25T07:15:40;97998.09;;;20.59;100.00
31501;BME280;31032;49.512;10.892;2022-08-25T07:18:06;97998.63;;;20.69;100.00
31501;BME280;31032;49.512;10.892;2022-08-25T07:20:35;98000.00;;;20.86;100.00
31501;BME280;31032;49.512;10.892;2022-08-25T07:23:00;97993.56;;;20.95;100.00
31501;BME280;31032;49.512;10.892;2022-08-25T07:25:25;97988.03;;;21.11;100.00
31501;BME280;31032;49.512;10.892;2022-08-25T07:27:51;97986.25;;;20.97;100.00
31501;BME280;31032;49.512;10.892;2022-08-25T07:30:16;97992.69;;;21.09;100.00
31501;BME280;31032;49.512;10.892;2022-08-25T07:32:42;97994.53;;;21.09;100.00
31501;BME280;31032;49.512;10.892;2022-08-25T07:35:08;97991.75;;;21.17;98.77
31501;BME280;31032;49.512;10.892;2022-08-25T07:37:42;97993.19;;;21.19;99.23
31501;BME280;31032;49.512;10.892;2022-08-25T07:40:20;97992.16;;;21.20;98.04
31501;BME280;31032;49.512;10.892;2022-08-25T07:42:48;97994.19;;;21.18;98.36
31501;BME280;31032;49.512;10.892;2022-08-25T07:45:14;97998.94;;;21.29;98.13
31501;BME280;31032;49.512;10.892;2022-08-25T07:47:39;97998.81;;;21.37;98.09
31501;BME280;31032;49.512;10.892;2022-08-25T07:50:07;97998.31;;;21.48;97.82
31501;BME280;31032;49.512;10.892;2022-08-25T07:52:33;98001.81;;;21.83;96.36
31501;BME280;31032;49.512;10.892;2022-08-25T07:54:58;97996.22;;;22.06;94.88
31501;BME280;31032;49.512;10.892;2022-08-25T07:57:23;98002.97;;;22.15;93.57
31501;BME280;31032;49.512;10.892;2022-08-25T07:59:50;98000.66;;;22.53;92.15
31501;BME280;31032;49.512;10.892;2022-08-25T08:02:16;97992.13;;;22.57;90.83
31501;BME280;31032;49.512;10.892;2022-08-25T08:04:41;97999.13;;;22.78;90.01
31501;BME280;31032;49.512;10.892;2022-08-25T08:07:07;98004.19;;;22.73;90.21
31501;BME280;31032;49.512;10.892;2022-08-25T08:09:32;98004.00;;;22.68;90.86
31501;BME280;31032;49.512;10.892;2022-08-25T08:11:58;98000.97;;;22.77;90.03
31501;BME280;31032;49.512;10.892;2022-08-25T08:14:23;97995.06;;;22.95;89.24
31501;BME280;31032;49.512;10.892;2022-08-25T08:16:48;97993.84;;;22.97;88.38
31501;BME280;31032;49.512;10.892;2022-08-25T08:19:15;97992.63;;;23.06;88.37
31501;BME280;31032;49.512;10.892;2022-08-25T08:21:40;97991.00;;;23.32;87.33
31501;BME280;31032;49.512;10.892;2022-08-25T08:24:06;97994.69;;;23.44;86.03
31501;BME280;31032;49.512;10.892;2022-08-25T08:26:32;97986.72;;;23.37;86.23
31501;BME280;31032;49.512;10.892;2022-08-25T08:28:57;97985.91;;;23.50;84.95
31501;BME280;31032;49.512;10.892;2022-08-25T08:31:24;97985.69;;;23.45;83.98
31501;BME280;31032;49.512;10.892;2022-08-25T08:33:51;97983.63;;;23.47;84.72
31501;BME280;31032;49.512;10.892;2022-08-25T08:36:18;97981.56;;;23.75;84.57
31501;BME280;31032;49.512;10.892;2022-08-25T08:38:44;97985.56;;;23.97;81.40
31501;BME280;31032;49.512;10.892;2022-08-25T08:41:16;97984.34;;;23.93;81.21
31501;BME280;31032;49.512;10.892;2022-08-25T08:52:08;97968.03;;;24.34;79.21
31501;BME280;31032;49.512;10.892;2022-08-25T08:54:37;97967.66;;;24.68;78.65
31501;BME280;31032;49.512;10.892;2022-08-25T08:57:10;97959.84;;;24.79;78.71
31501;BME280;31032;49.512;10.892;2022-08-25T08:59:41;97969.88;;;24.77;76.57
31501;BME280;31032;49.512;10.892;2022-08-25T09:02:16;97974.03;;;24.98;76.61
31501;BME280;31032;49.512;10.892;2022-08-25T09:04:56;97976.31;;;24.94;76.78
31501;BME280;31032;49.512;10.892;2022-08-25T09:07:44;97981.16;;;25.29;74.70
31501;BME280;31032;49.512;10.892;2022-08-25T09:10:13;97981.28;;;25.83;70.67
31501;BME280;31032;49.512;10.892;2022-08-25T09:12:45;97975.78;;;25.96;70.43
31501;BME280;31032;49.512;10.892;2022-08-25T09:15:27;97980.47;;;26.01;68.97
31501;BME280;31032;49.512;10.892;2022-08-25T09:21:42;97969.56;;;25.66;69.87
31501;BME280;31032;49.512;10.892;2022-08-25T09:29:29;97969.91;;;25.69;70.52
31501;BME280;31032;49.512;10.892;2022-08-25T09:32:00;97974.41;;;25.93;70.00
31501;BME280;31032;49.512;10.892;2022-08-25T09:34:30;97965.31;;;26.31;67.38
31501;BME280;31032;49.512;10.892;2022-08-25T09:36:57;97966.91;;;26.20;67.43
31501;BME280;31032;49.512;10.892;2022-08-25T09:39:23;97960.31;;;25.68;68.86
31501;BME280;31032;49.512;10.892;2022-08-25T09:41:54;97954.47;;;26.14;67.75
31501;BME280;31032;49.512;10.892;2022-08-25T09:44:30;97960.69;;;26.26;65.68
31501;BME280;31032;49.512;10.892;2022-08-25T09:47:21;97956.72;;;26.29;65.11
31501;BME280;31032;49.512;10.892;2022-08-25T09:49:57;97952.56;;;26.33;66.18
31501;BME280;31032;49.512;10.892;2022-08-25T09:54:57;97951.13;;;26.19;66.71
31501;BME280;31032;49.512;10.892;2022-08-25T09:57:50;97938.06;;;26.40;65.18
31501;BME280;31032;49.512;10.892;2022-08-25T10:03:27;97928.97;;;27.01;63.35
31501;BME280;31032;49.512;10.892;2022-08-25T10:08:35;97920.88;;;27.19;62.21
31501;BME280;31032;49.512;10.892;2022-08-25T10:11:07;97914.94;;;27.17;61.76
31501;BME280;31032;49.512;10.892;2022-08-25T10:13:49;97906.56;;;27.02;62.93
31501;BME280;31032;49.512;10.892;2022-08-25T10:16:29;97905.63;;;26.96;62.17
31501;BME280;31032;49.512;10.892;2022-08-25T10:19:24;97899.91;;;26.81;62.93
31501;BME280;31032;49.512;10.892;2022-08-25T10:22:06;97894.78;;;26.79;63.99
31501;BME280;31032;49.512;10.892;2022-08-25T10:24:33;97900.28;;;27.08;63.33
31501;BME280;31032;49.512;10.892;2022-08-25T10:35:19;97871.75;;;27.71;60.39
31501;BME280;31032;49.512;10.892;2022-08-25T10:38:00;97866.31;;;27.66;58.68
31501;BME280;31032;49.512;10.892;2022-08-25T10:40:34;97867.16;;;27.32;59.79
31501;BME280;31032;49.512;10.892;2022-08-25T10:43:10;97875.97;;;27.55;60.94
31501;BME280;31032;49.512;10.892;2022-08-25T10:45:46;97857.72;;;27.92;59.40
31501;BME280;31032;49.512;10.892;2022-08-25T10:51:28;97855.69;;;28.39;55.89
31501;BME280;31032;49.512;10.892;2022-08-25T10:56:35;97852.50;;;28.25;57.48
31501;BME280;31032;49.512;10.892;2022-08-25T11:04:27;97848.63;;;28.49;57.48
31501;BME280;31032;49.512;10.892;2022-08-25T11:06:57;97853.72;;;28.63;57.52
31501;BME280;31032;49.512;10.892;2022-08-25T11:09:29;97845.91;;;28.78;58.21
31501;BME280;31032;49.512;10.892;2022-08-25T11:12:10;97843.72;;;28.91;55.55
31501;BME280;31032;49.512;10.892;2022-08-25T11:14:45;97839.00;;;28.82;55.84
31501;BME280;31032;49.512;10.892;2022-08-25T11:17:20;97836.28;;;28.48;55.83
31501;BME280;31032;49.512;10.892;2022-08-25T11:19:51;97842.53;;;28.37;56.64
31501;BME280;31032;49.512;10.892;2022-08-25T11:27:51;97837.31;;;28.76;56.97
31501;BME280;31032;49.512;10.892;2022-08-25T11:30:19;97837.63;;;28.96;56.88
31501;BME280;31032;49.512;10.892;2022-08-25T11:32:50;97836.97;;;29.05;56.02
31501;BME280;31032;49.512;10.892;2022-08-25T11:35:19;97834.44;;;28.99;55.87
31501;BME280;31032;49.512;10.892;2022-08-25T11:40:53;97824.72;;;28.15;57.07
31501;BME280;31032;49.512;10.892;2022-08-25T11:51:43;97823.50;;;28.22;58.26
31501;BME280;31032;49.512;10.892;2022-08-25T11:57:00;97816.97;;;28.30;57.95
31501;BME280;31032;49.512;10.892;2022-08-25T12:10:21;97820.31;;;28.87;55.28
31501;BME280;31032;49.512;10.892;2022-08-25T12:17:44;97823.50;;;28.22;57.04
31501;BME280;31032;49.512;10.892;2022-08-25T12:20:10;97820.25;;;28.04;58.19
31501;BME280;31032;49.512;10.892;2022-08-25T12:25:26;97814.44;;;27.95;58.21
31501;BME280;31032;49.512;10.892;2022-08-25T12:28:27;97812.06;;;28.10;57.20
31501;BME280;31032;49.512;10.892;2022-08-25T12:30:57;97810.44;;;28.09;57.49
31501;BME280;31032;49.512;10.892;2022-08-25T12:36:27;97814.91;;;27.92;57.79
31501;BME280;31032;49.512;10.892;2022-08-25T12:39:07;97812.53;;;27.79;57.74
31501;BME280;31032;49.512;10.892;2022-08-25T12:41:52;97813.75;;;27.88;58.63
31501;BME280;31032;49.512;10.892;2022-08-25T12:44:44;97814.31;;;28.02;57.90
31501;BME280;31032;49.512;10.892;2022-08-25T12:47:25;97811.94;;;28.33;57.25
31501;BME280;31032;49.512;10.892;2022-08-25T12:49:51;97816.22;;;28.34;56.25
31501;BME280;31032;49.512;10.892;2022-08-25T12:52:20;97814.69;;;28.38;55.61
31501;BME280;31032;49.512;10.892;2022-08-25T12:54:51;97808.56;;;28.55;56.38
31501;BME280;31032;49.512;10.892;2022-08-25T13:00:21;97809.44;;;28.43;54.54
31501;BME280;31032;49.512;10.892;2022-08-25T13:10:55;97798.00;;;28.65;55.00
31501;BME280;31032;49.512;10.892;2022-08-25T13:16:08;97796.03;;;28.77;53.72
31501;BME280;31032;49.512;10.892;2022-08-25T13:18:39;97792.53;;;28.93;53.65
31501;BME280;31032;49.512;10.892;2022-08-25T13:23:53;97784.63;;;29.41;51.17
31501;BME280;31032;49.512;10.892;2022-08-25T13:26:28;97782.66;;;29.58;50.30
31501;BME280;31032;49.512;10.892;2022-08-25T13:28:57;97788.03;;;29.58;49.13
31501;BME280;31032;49.512;10.892;2022-08-25T13:31:25;97784.06;;;29.39;50.56
31501;BME280;31032;49.512;10.892;2022-08-25T13:33:58;97772.88;;;29.69;51.21
31501;BME280;31032;49.512;10.892;2022-08-25T13:36:25;97763.53;;;29.98;49.76
31501;BME280;31032;49.512;10.892;2022-08-25T13:39:16;97766.63;;;30.11;49.17
31501;BME280;31032;49.512;10.892;2022-08-25T13:41:51;97759.66;;;30.42;48.85
31501;BME280;31032;49.512;10.892;2022-08-25T13:44:19;97760.94;;;30.71;48.59
31501;BME280;31032;49.512;10.892;2022-08-25T13:46:45;97754.34;;;30.89;48.30
31501;BME280;31032;49.512;10.892;2022-08-25T13:49:12;97751.81;;;31.19;48.63
31501;BME280;31032;49.512;10.892;2022-08-25T13:51:53;97744.44;;;31.61;47.81
31501;BME280;31032;49.512;10.892;2022-08-25T13:54:25;97742.06;;;31.70;47.63
31501;BME280;31032;49.512;10.892;2022-08-25T13:56:51;97739.63;;;31.58;47.13
31501;BME280;31032;49.512;10.892;2022-08-25T13:59:23;97741.44;;;31.43;46.87
31501;BME280;31032;49.512;10.892;2022-08-25T14:01:50;97739.91;;;31.05;47.75
31501;BME280;31032;49.512;10.892;2022-08-25T14:04:44;97746.13;;;30.69;48.20
31501;BME280;31032;49.512;10.892;2022-08-25T14:07:14;97738.06;;;30.32;49.30
31501;BME280;31032;49.512;10.892;2022-08-25T14:12:40;97744.38;;;30.48;48.50
31501;BME280;31032;49.512;10.892;2022-08-25T14:17:43;97739.78;;;31.32;47.65
31501;BME280;31032;49.512;10.892;2022-08-25T14:20:24;97735.84;;;31.59;47.04
31501;BME280;31032;49.512;10.892;2022-08-25T14:22:54;97736.97;;;31.83;46.77
31501;BME280;31032;49.512;10.892;2022-08-25T14:25:21;97726.72;;;31.70;45.73
31501;BME280;31032;49.512;10.892;2022-08-25T14:27:54;97721.91;;;31.87;46.13
31501;BME280;31032;49.512;10.892;2022-08-25T14:30:20;97719.78;;;32.20;45.42
31501;BME280;31032;49.512;10.892;2022-08-25T14:32:45;97727.59;;;32.41;44.28
31501;BME280;31032;49.512;10.892;2022-08-25T14:35:11;97726.81;;;32.51;44.54
31501;BME280;31032;49.512;10.892;2022-08-25T14:37:37;97730.78;;;32.83;44.02
31501;BME280;31032;49.512;10.892;2022-08-25T14:40:03;97733.78;;;32.62;43.98
31501;BME280;31032;49.512;10.892;2022-08-25T14:42:28;97719.22;;;32.33;45.33
31501;BME280;31032;49.512;10.892;2022-08-25T14:44:54;97727.31;;;32.58;44.31
31501;BME280;31032;49.512;10.892;2022-08-25T14:47:19;97723.81;;;32.62;45.54